| time (UTC) | temp F | wind direction | speed MPH | gust MPH | rain 1hr in | rain 24hr in | rain mn in | humidity % | barometer mb |
| 20260508225514 | 67 | 166 | 0.0 | 1.0 | 0.00 | 0.00 | 0.00 | 62 | 1014.6 |
| 20260508225010 | 67 | 173 | 0.0 | 0.0 | 0.00 | 0.00 | 0.00 | 61 | 1014.7 |
| 20260508224509 | 67 | 161 | 0.0 | 1.0 | 0.00 | 0.00 | 0.00 | 60 | 1014.7 |
| 20260508224005 | 67 | 183 | 2.0 | 2.0 | 0.00 | 0.00 | 0.00 | 62 | 1014.7 |
| 20260508223504 | 67 | 177 | 0.0 | 0.0 | 0.00 | 0.00 | 0.00 | 61 | 1014.8 |
| 20260508223001 | 67 | 164 | 0.0 | 3.0 | 0.00 | 0.00 | 0.00 | 60 | 1014.8 |
| 20260508222458 | 68 | 154 | 1.0 | 2.0 | 0.00 | 0.00 | 0.00 | 62 | 1014.6 |
| 20260508221954 | 68 | 148 | 0.0 | 1.0 | 0.00 | 0.00 | 0.00 | 60 | 1014.6 |
| 20260508221450 | 68 | 174 | 2.0 | 3.0 | 0.00 | 0.00 | 0.00 | 59 | 1014.9 |
| 20260508220946 | 68 | 166 | 0.0 | 2.0 | 0.00 | 0.00 | 0.00 | 59 | 1014.6 |
| 20260508220443 | 68 | 174 | 1.0 | 2.0 | 0.00 | 0.00 | 0.00 | 59 | 1014.5 |
| 20260508215939 | 68 | 178 | 2.0 | 5.0 | 0.00 | 0.00 | 0.00 | 61 | 1014.6 |
| 20260508215436 | 68 | 179 | 2.0 | 2.0 | 0.00 | 0.00 | 0.00 | 60 | 1014.8 |
| 20260508214933 | 68 | 249 | 3.0 | 3.0 | 0.00 | 0.00 | 0.00 | 58 | 1014.8 |
| 20260508214431 | 69 | 178 | 0.0 | 2.0 | 0.00 | 0.00 | 0.00 | 59 | 1014.7 |
| 20260508213926 | 68 | 179 | 0.0 | 0.0 | 0.00 | 0.00 | 0.00 | 57 | 1014.5 |
| 20260508213424 | 68 | 189 | 2.0 | 2.0 | 0.00 | 0.00 | 0.00 | 55 | 1014.3 |
| 20260508212919 | 69 | 170 | 0.0 | 2.0 | 0.00 | 0.00 | 0.00 | 57 | 1014.6 |
| 20260508212417 | 69 | 173 | 0.0 | 0.0 | 0.00 | 0.00 | 0.00 | 57 | 1014.6 |
| 20260508211912 | 69 | 185 | 0.0 | 2.0 | 0.00 | 0.00 | 0.00 | 58 | 1014.8 |
| 20260508211408 | 69 | 183 | 1.0 | 2.0 | 0.00 | 0.00 | 0.00 | 57 | 1014.7 |
| 20260508210906 | 69 | 181 | 0.0 | 3.0 | 0.00 | 0.00 | 0.00 | 58 | 1014.9 |
| 20260508210402 | 69 | 225 | 2.0 | 3.0 | 0.00 | 0.00 | 0.00 | 56 | 1014.9 |
| 20260508205858 | 69 | 221 | 3.0 | 3.0 | 0.00 | 0.00 | 0.00 | 54 | 1014.6 |
| 20260508205355 | 69 | 233 | 4.0 | 5.0 | 0.00 | 0.00 | 0.00 | 54 | 1014.6 |
| 20260508204851 | 69 | 230 | 2.0 | 5.0 | 0.00 | 0.00 | 0.00 | 55 | 1014.8 |
| 20260508204349 | 70 | 187 | 1.0 | 2.0 | 0.00 | 0.00 | 0.00 | 55 | 1014.8 |
| 20260508203844 | 71 | 173 | 1.0 | 1.0 | 0.00 | 0.00 | 0.00 | 56 | 1014.8 |
| 20260508203341 | 70 | 176 | 1.0 | 1.0 | 0.00 | 0.00 | 0.00 | 51 | 1014.8 |
| 20260508202836 | 70 | 201 | 1.0 | 2.0 | 0.00 | 0.00 | 0.00 | 54 | 1014.7 |
| 20260508202334 | 70 | 191 | 1.0 | 5.0 | 0.00 | 0.00 | 0.00 | 55 | 1014.9 |
| 20260508201831 | 70 | 206 | 2.0 | 3.0 | 0.00 | 0.00 | 0.00 | 51 | 1015.1 |
| 20260508201328 | 71 | 200 | 0.0 | 1.0 | 0.00 | 0.00 | 0.00 | 54 | 1015.0 |
| 20260508200824 | 70 | 187 | 1.0 | 2.0 | 0.00 | 0.00 | 0.00 | 53 | 1015.0 |
| 20260508200321 | 71 | 181 | 0.0 | 5.0 | 0.00 | 0.00 | 0.00 | 53 | 1014.9 |
| 20260508195811 | 70 | 170 | 0.0 | 3.0 | 0.00 | 0.00 | 0.00 | 51 | 1015.2 |
| 20260508195308 | 70 | 229 | 2.0 | 3.0 | 0.00 | 0.00 | 0.00 | 53 | 1015.4 |
| 20260508194804 | 70 | 225 | 3.0 | 3.0 | 0.00 | 0.00 | 0.00 | 52 | 1015.5 |
| 20260508194302 | 71 | 253 | 4.0 | 5.0 | 0.00 | 0.00 | 0.00 | 51 | 1015.3 |
| 20260508193759 | 71 | 150 | 0.0 | 2.0 | 0.00 | 0.00 | 0.00 | 52 | 1015.5 |
| 20260508193255 | 70 | 177 | 1.0 | 5.0 | 0.00 | 0.00 | 0.00 | 54 | 1016.0 |
| 20260508192751 | 70 | 251 | 3.0 | 5.0 | 0.00 | 0.00 | 0.00 | 52 | 1015.5 |
| 20260508192249 | 70 | 260 | 3.0 | 7.0 | 0.00 | 0.00 | 0.00 | 52 | 1015.6 |
| 20260508191746 | 71 | 165 | 0.0 | 2.0 | 0.00 | 0.00 | 0.00 | 53 | 1015.6 |
| 20260508191243 | 71 | 172 | 0.0 | 3.0 | 0.00 | 0.00 | 0.00 | 53 | 1015.8 |
| 20260508190740 | 72 | 185 | 0.0 | 7.0 | 0.00 | 0.00 | 0.00 | 53 | 1015.8 |
| 20260508190236 | 71 | 192 | 2.0 | 3.0 | 0.00 | 0.00 | 0.00 | 51 | 1015.8 |
| 20260508185733 | 70 | 200 | 2.0 | 6.0 | 0.00 | 0.00 | 0.00 | 54 | 1016.1 |
| 20260508185230 | 70 | 192 | 1.0 | 5.0 | 0.00 | 0.00 | 0.00 | 52 | 1015.8 |
| 20260508184727 | 71 | 139 | 2.0 | 3.0 | 0.00 | 0.00 | 0.00 | 50 | 1015.8 |
| 20260508184224 | 71 | 296 | 3.0 | 5.0 | 0.00 | 0.00 | 0.00 | 53 | 1016.2 |
| 20260508183721 | 72 | 270 | 2.0 | 5.0 | 0.00 | 0.00 | 0.00 | 50 | 1016.3 |
| 20260508183217 | 72 | 108 | 1.0 | 5.0 | 0.00 | 0.00 | 0.00 | 52 | 1016.6 |
| 20260508182713 | 70 | 126 | 2.0 | 3.0 | 0.00 | 0.00 | 0.00 | 52 | 1016.5 |
| 20260508182210 | 69 | 168 | 0.0 | 1.0 | 0.00 | 0.00 | 0.00 | 53 | 1016.7 |
| 20260508181706 | 68 | 184 | 3.0 | 3.0 | 0.00 | 0.00 | 0.00 | 56 | 1016.4 |
| 20260508181203 | 68 | 173 | 1.0 | 2.0 | 0.00 | 0.00 | 0.00 | 57 | 1016.6 |
| 20260508180700 | 69 | 276 | 1.0 | 6.0 | 0.00 | 0.00 | 0.00 | 54 | 1016.7 |
| 20260508180157 | 69 | 151 | 1.0 | 3.0 | 0.00 | 0.00 | 0.00 | 59 | 1016.5 |
| 20260508175653 | 69 | 279 | 3.0 | 7.0 | 0.00 | 0.00 | 0.00 | 55 | 1016.8 |
| 20260508175150 | 70 | 178 | 1.0 | 5.0 | 0.00 | 0.00 | 0.00 | 55 | 1016.6 |
| 20260508174648 | 69 | 263 | 3.0 | 3.0 | 0.00 | 0.00 | 0.00 | 54 | 1016.9 |
| 20260508174144 | 70 | 94 | 6.0 | 8.0 | 0.00 | 0.00 | 0.00 | 55 | 1016.9 |
| 20260508173641 | 69 | 169 | 0.0 | 3.0 | 0.00 | 0.00 | 0.00 | 58 | 1017.1 |
| 20260508173137 | 70 | 140 | 1.0 | 1.0 | 0.00 | 0.00 | 0.00 | 54 | 1017.3 |
| 20260508172635 | 69 | 144 | 2.0 | 2.0 | 0.00 | 0.00 | 0.00 | 59 | 1017.1 |
| 20260508172131 | 68 | 128 | 1.0 | 3.0 | 0.00 | 0.00 | 0.00 | 58 | 1017.3 |
| 20260508171628 | 68 | 168 | 0.0 | 0.0 | 0.00 | 0.00 | 0.00 | 59 | 1017.1 |
| 20260508171124 | 69 | 111 | 2.0 | 5.0 | 0.00 | 0.00 | 0.00 | 56 | 1017.5 |
| 20260508170621 | 69 | 210 | 3.0 | 5.0 | 0.00 | 0.00 | 0.00 | 55 | 1017.4 |
| 20260508170119 | 70 | 177 | 1.0 | 5.0 | 0.00 | 0.00 | 0.00 | 54 | 1017.4 |
| 20260508165616 | 69 | 164 | 0.0 | 2.0 | 0.00 | 0.00 | 0.00 | 57 | 1017.5 |
| 20260508165113 | 69 | 117 | 3.0 | 5.0 | 0.00 | 0.00 | 0.00 | 60 | 1017.7 |
| 20260508164609 | 68 | 187 | 3.0 | 3.0 | 0.00 | 0.00 | 0.00 | 57 | 1017.7 |
| 20260508164106 | 68 | 103 | 1.0 | 7.0 | 0.00 | 0.00 | 0.00 | 58 | 1017.7 |
| 20260508163603 | 67 | 144 | 1.0 | 5.0 | 0.00 | 0.00 | 0.00 | 58 | 1017.7 |
| 20260508163100 | 65 | 150 | 0.0 | 1.0 | 0.00 | 0.00 | 0.00 | 62 | 1017.9 |
| 20260508162557 | 66 | 151 | 3.0 | 6.0 | 0.00 | 0.00 | 0.00 | 60 | 1018.0 |
| 20260508162054 | 66 | 168 | 0.0 | 0.0 | 0.00 | 0.00 | 0.00 | 58 | 1018.1 |
| 20260508161551 | 67 | 162 | 1.0 | 3.0 | 0.00 | 0.00 | 0.00 | 59 | 1018.2 |
| 20260508161048 | 68 | 146 | 3.0 | 3.0 | 0.00 | 0.00 | 0.00 | 56 | 1018.1 |
| 20260508160546 | 67 | 161 | 2.0 | 5.0 | 0.00 | 0.00 | 0.00 | 59 | 1018.0 |
| 20260508160043 | 68 | 69 | 3.0 | 6.0 | 0.00 | 0.00 | 0.00 | 55 | 1018.2 |
| 20260508155540 | 68 | 149 | 1.0 | 5.0 | 0.00 | 0.00 | 0.00 | 58 | 1018.1 |
| 20260508155037 | 68 | 124 | 0.0 | 5.0 | 0.00 | 0.00 | 0.00 | 57 | 1018.3 |
| 20260508154534 | 66 | 203 | 2.0 | 3.0 | 0.00 | 0.00 | 0.00 | 64 | 1018.4 |
| 20260508154031 | 67 | 153 | 0.0 | 5.0 | 0.00 | 0.00 | 0.00 | 61 | 1018.4 |
| 20260508153528 | 67 | 151 | 1.0 | 2.0 | 0.00 | 0.00 | 0.00 | 58 | 1018.4 |
| 20260508153024 | 66 | 124 | 0.0 | 5.0 | 0.00 | 0.00 | 0.00 | 59 | 1018.6 |
| 20260508152521 | 65 | 168 | 3.0 | 6.0 | 0.00 | 0.00 | 0.00 | 64 | 1018.5 |
| 20260508152017 | 66 | 169 | 1.0 | 6.0 | 0.00 | 0.00 | 0.00 | 61 | 1018.5 |
| 20260508151514 | 67 | 115 | 2.0 | 9.0 | 0.00 | 0.00 | 0.00 | 60 | 1018.7 |
| 20260508151010 | 68 | 171 | 2.0 | 3.0 | 0.00 | 0.00 | 0.00 | 59 | 1018.3 |
| 20260508150508 | 66 | 197 | 0.0 | 2.0 | 0.00 | 0.00 | 0.00 | 62 | 1018.6 |
| 20260508150004 | 67 | 140 | 3.0 | 5.0 | 0.00 | 0.00 | 0.00 | 58 | 1018.5 |
| 20260508145500 | 66 | 205 | 2.0 | 6.0 | 0.00 | 0.00 | 0.00 | 60 | 1018.3 |
| 20260508144956 | 64 | 192 | 3.0 | 7.0 | 0.00 | 0.00 | 0.00 | 61 | 1018.4 |
| 20260508144454 | 65 | 119 | 4.0 | 5.0 | 0.00 | 0.00 | 0.00 | 60 | 1018.4 |
| 20260508143951 | 65 | 97 | 2.0 | 8.0 | 0.00 | 0.00 | 0.00 | 62 | 1018.2 |
| 20260508143449 | 66 | 180 | 2.0 | 5.0 | 0.00 | 0.00 | 0.00 | 64 | 1018.3 |
| 20260508142945 | 65 | 125 | 1.0 | 5.0 | 0.00 | 0.00 | 0.00 | 63 | 1018.3 |
| 20260508142442 | 65 | 104 | 3.0 | 6.0 | 0.00 | 0.00 | 0.00 | 64 | 1018.3 |
| 20260508141938 | 65 | 148 | 2.0 | 3.0 | 0.00 | 0.00 | 0.00 | 61 | 1018.3 |
| 20260508141435 | 66 | 109 | 0.0 | 3.0 | 0.00 | 0.00 | 0.00 | 65 | 1018.3 |
| 20260508140933 | 65 | 147 | 0.0 | 3.0 | 0.00 | 0.00 | 0.00 | 67 | 1018.6 |
| 20260508140430 | 64 | 144 | 1.0 | 1.0 | 0.00 | 0.00 | 0.00 | 67 | 1018.6 |
| 20260508135925 | 63 | 101 | 2.0 | 3.0 | 0.00 | 0.00 | 0.00 | 67 | 1018.6 |
| 20260508135422 | 63 | 133 | 0.0 | 0.0 | 0.00 | 0.00 | 0.00 | 69 | 1018.8 |
| 20260508134919 | 62 | 157 | 1.0 | 3.0 | 0.00 | 0.00 | 0.00 | 70 | 1018.7 |
| 20260508134415 | 62 | 150 | 0.0 | 5.0 | 0.00 | 0.00 | 0.00 | 69 | 1018.6 |
| 20260508133912 | 62 | 152 | 0.0 | 5.0 | 0.00 | 0.00 | 0.00 | 71 | 1018.7 |
| 20260508133410 | 62 | 129 | 1.0 | 3.0 | 0.00 | 0.00 | 0.00 | 71 | 1018.7 |
| 20260508132907 | 61 | 132 | 1.0 | 2.0 | 0.00 | 0.00 | 0.00 | 72 | 1018.7 |
| 20260508132405 | 60 | 156 | 0.0 | 1.0 | 0.00 | 0.00 | 0.00 | 76 | 1018.6 |
| 20260508131901 | 61 | 56 | 4.0 | 5.0 | 0.00 | 0.00 | 0.00 | 74 | 1018.8 |
| 20260508131356 | 60 | 171 | 0.0 | 0.0 | 0.00 | 0.00 | 0.00 | 78 | 1018.7 |
| 20260508130854 | 60 | 156 | 0.0 | 3.0 | 0.00 | 0.00 | 0.00 | 77 | 1018.6 |
| 20260508130350 | 59 | 146 | 0.0 | 2.0 | 0.00 | 0.00 | 0.00 | 78 | 1018.5 |
| 20260508125846 | 59 | 157 | 0.0 | 2.0 | 0.00 | 0.00 | 0.00 | 78 | 1018.5 |
| 20260508125342 | 59 | 141 | 0.0 | 1.0 | 0.00 | 0.00 | 0.00 | 78 | 1018.4 |
| 20260508124840 | 59 | 165 | 0.0 | 1.0 | 0.00 | 0.00 | 0.00 | 81 | 1018.3 |
| 20260508124338 | 58 | 146 | 0.0 | 0.0 | 0.00 | 0.00 | 0.00 | 82 | 1018.0 |
| 20260508123836 | 58 | 154 | 0.0 | 0.0 | 0.00 | 0.00 | 0.00 | 81 | 1018.3 |
| 20260508123334 | 57 | 148 | 0.0 | 0.0 | 0.00 | 0.00 | 0.00 | 82 | 1018.0 |
| 20260508122830 | 58 | 160 | 0.0 | 0.0 | 0.00 | 0.00 | 0.00 | 81 | 1018.0 |
| 20260508122327 | 58 | 144 | 0.0 | 1.0 | 0.00 | 0.00 | 0.00 | 81 | 1017.8 |
| 20260508121824 | 57 | 22 | 0.0 | 2.0 | 0.00 | 0.00 | 0.00 | 82 | 1017.7 |
| 20260508121323 | 56 | 138 | 0.0 | 0.0 | 0.00 | 0.00 | 0.00 | 84 | 1017.9 |
| 20260508120820 | 55 | 139 | 0.0 | 0.0 | 0.00 | 0.00 | 0.00 | 87 | 1017.8 |
| 20260508120318 | 54 | 151 | 0.0 | 1.0 | 0.00 | 0.00 | 0.00 | 90 | 1017.7 |
| 20260508115815 | 53 | 147 | 0.0 | 0.0 | 0.00 | 0.00 | 0.00 | 91 | 1017.7 |
| 20260508115312 | 53 | 151 | 0.0 | 0.0 | 0.00 | 0.00 | 0.00 | 93 | 1017.7 |
| 20260508114809 | 52 | 155 | 0.0 | 0.0 | 0.00 | 0.00 | 0.00 | 95 | 1017.6 |
| 20260508114306 | 52 | 168 | 0.0 | 0.0 | 0.00 | 0.00 | 0.00 | 96 | 1017.4 |
| 20260508113802 | 51 | 168 | 0.0 | 0.0 | 0.00 | 0.00 | 0.00 | 96 | 1017.4 |
| 20260508113301 | 51 | 164 | 0.0 | 0.0 | 0.00 | 0.00 | 0.00 | 97 | 1017.3 |
| 20260508112756 | 51 | 160 | 0.0 | 0.0 | 0.00 | 0.00 | 0.00 | 97 | 1017.3 |
| 20260508112254 | 51 | 162 | 0.0 | 0.0 | 0.00 | 0.00 | 0.00 | 98 | 1017.1 |
| 20260508111749 | 51 | 160 | 0.0 | 0.0 | 0.00 | 0.00 | 0.00 | 98 | 1017.0 |
| 20260508111247 | 50 | 151 | 0.0 | 0.0 | 0.00 | 0.00 | 0.00 | 99 | 1016.7 |
| 20260508110744 | 50 | 152 | 0.0 | 0.0 | 0.00 | 0.00 | 0.00 | 99 | 1016.7 |
| 20260508110241 | 50 | 148 | 0.0 | 1.0 | 0.00 | 0.00 | 0.00 | 99 | 1016.6 |
| 20260508105736 | 50 | 164 | 0.0 | 0.0 | 0.00 | 0.00 | 0.00 | 99 | 1016.4 |
| 20260508105233 | 50 | 164 | 0.0 | 0.0 | 0.00 | 0.00 | 0.00 | 99 | 1016.4 |
| 20260508104730 | 50 | 163 | 0.0 | 0.0 | 0.00 | 0.00 | 0.00 | 99 | 1016.3 |
| 20260508104227 | 50 | 149 | 0.0 | 0.0 | 0.00 | 0.00 | 0.00 | 99 | 1016.3 |
| 20260508103724 | 50 | 157 | 0.0 | 1.0 | 0.00 | 0.00 | 0.00 | 99 | 1016.1 |
| 20260508103221 | 50 | 161 | 0.0 | 0.0 | 0.00 | 0.00 | 0.00 | 99 | 1016.0 |
| 20260508102718 | 50 | 155 | 0.0 | 0.0 | 0.00 | 0.00 | 0.00 | 99 | 1015.8 |
| 20260508102216 | 50 | 155 | 0.0 | 0.0 | 0.00 | 0.00 | 0.00 | 99 | 1015.8 |
| 20260508101713 | 50 | 152 | 0.0 | 0.0 | 0.00 | 0.00 | 0.00 | 99 | 1015.8 |
| 20260508101211 | 50 | 153 | 0.0 | 0.0 | 0.00 | 0.00 | 0.00 | 99 | 1016.0 |
| 20260508100708 | 50 | 153 | 0.0 | 0.0 | 0.00 | 0.00 | 0.00 | 99 | 1015.7 |
| 20260508100206 | 50 | 152 | 0.0 | 0.0 | 0.00 | 0.00 | 0.00 | 99 | 1015.8 |
| 20260508095702 | 50 | 152 | 0.0 | 0.0 | 0.00 | 0.00 | 0.00 | 99 | 1015.5 |
| 20260508095200 | 50 | 152 | 0.0 | 0.0 | 0.00 | 0.00 | 0.00 | 99 | 1015.4 |
| 20260508094656 | 51 | 152 | 0.0 | 0.0 | 0.00 | 0.00 | 0.00 | 99 | 1015.5 |
| 20260508094153 | 51 | 153 | 0.0 | 0.0 | 0.00 | 0.00 | 0.00 | 99 | 1015.4 |
| 20260508093650 | 51 | 152 | 0.0 | 0.0 | 0.00 | 0.00 | 0.00 | 99 | 1015.3 |
| 20260508093148 | 51 | 152 | 0.0 | 0.0 | 0.00 | 0.00 | 0.00 | 99 | 1015.3 |
| 20260508092645 | 51 | 164 | 0.0 | 0.0 | 0.00 | 0.00 | 0.00 | 99 | 1015.6 |
| 20260508092143 | 51 | 164 | 0.0 | 0.0 | 0.00 | 0.00 | 0.00 | 99 | 1015.4 |
| 20260508091640 | 51 | 180 | 0.0 | 0.0 | 0.00 | 0.00 | 0.00 | 99 | 1015.1 |
| 20260508091137 | 51 | 180 | 0.0 | 0.0 | 0.00 | 0.00 | 0.00 | 99 | 1015.2 |
| 20260508090635 | 50 | 180 | 0.0 | 0.0 | 0.00 | 0.00 | 0.00 | 99 | 1015.1 |
| 20260508090132 | 50 | 180 | 0.0 | 0.0 | 0.00 | 0.00 | 0.00 | 99 | 1015.0 |
| 20260508085628 | 50 | 180 | 0.0 | 0.0 | 0.00 | 0.00 | 0.00 | 99 | 1015.1 |
| 20260508085126 | 50 | 180 | 0.0 | 0.0 | 0.00 | 0.00 | 0.00 | 99 | 1014.9 |
| 20260508084622 | 50 | 180 | 0.0 | 0.0 | 0.00 | 0.00 | 0.00 | 99 | 1014.8 |
| 20260508084119 | 50 | 180 | 0.0 | 0.0 | 0.00 | 0.00 | 0.00 | 99 | 1015.0 |
| 20260508083616 | 50 | 180 | 0.0 | 0.0 | 0.00 | 0.00 | 0.00 | 99 | 1014.9 |
| 20260508083114 | 50 | 180 | 0.0 | 0.0 | 0.00 | 0.00 | 0.00 | 99 | 1014.8 |
| 20260508082609 | 50 | 180 | 0.0 | 0.0 | 0.00 | 0.00 | 0.00 | 99 | 1014.8 |
| 20260508082107 | 50 | 180 | 0.0 | 0.0 | 0.00 | 0.00 | 0.00 | 99 | 1015.1 |
| 20260508081604 | 50 | 180 | 0.0 | 0.0 | 0.00 | 0.00 | 0.00 | 99 | 1015.0 |
| 20260508081100 | 50 | 180 | 0.0 | 0.0 | 0.00 | 0.00 | 0.00 | 99 | 1014.7 |
| 20260508080558 | 50 | 180 | 0.0 | 0.0 | 0.00 | 0.00 | 0.00 | 99 | 1014.8 |
| 20260508080055 | 50 | 180 | 0.0 | 0.0 | 0.00 | 0.00 | 0.00 | 99 | 1014.8 |
| 20260508075551 | 50 | 180 | 0.0 | 0.0 | 0.00 | 0.00 | 0.00 | 99 | 1014.9 |
| 20260508075049 | 50 | 180 | 0.0 | 0.0 | 0.00 | 0.00 | 0.00 | 99 | 1014.9 |
| 20260508074547 | 50 | 180 | 0.0 | 0.0 | 0.00 | 0.00 | 0.00 | 99 | 1015.0 |
| 20260508074043 | 50 | 180 | 0.0 | 0.0 | 0.00 | 0.00 | 0.00 | 99 | 1015.1 |
| 20260508073540 | 50 | 180 | 0.0 | 0.0 | 0.00 | 0.00 | 0.00 | 99 | 1015.0 |
| 20260508073038 | 50 | 180 | 0.0 | 0.0 | 0.00 | 0.00 | 0.00 | 99 | 1015.0 |
| 20260508072533 | 50 | 180 | 0.0 | 0.0 | 0.00 | 0.00 | 0.00 | 98 | 1015.1 |
| 20260508072031 | 51 | 180 | 0.0 | 0.0 | 0.00 | 0.00 | 0.00 | 98 | 1015.2 |
| 20260508071529 | 51 | 180 | 0.0 | 0.0 | 0.00 | 0.00 | 0.00 | 98 | 1014.9 |
| 20260508071026 | 51 | 180 | 0.0 | 0.0 | 0.00 | 0.00 | 0.00 | 98 | 1014.9 |
| 20260508070524 | 51 | 180 | 0.0 | 0.0 | 0.00 | 0.00 | 0.00 | 98 | 1014.9 |
| 20260508070022 | 51 | 180 | 0.0 | 0.0 | 0.00 | 0.00 | 0.00 | 98 | 1014.8 |
| 20260508065519 | 51 | 180 | 0.0 | 0.0 | 0.00 | 0.00 | 0.00 | 98 | 1014.6 |
| 20260508065018 | 51 | 180 | 0.0 | 0.0 | 0.00 | 0.00 | 0.00 | 98 | 1014.6 |
| 20260508064515 | 51 | 180 | 0.0 | 0.0 | 0.00 | 0.00 | 0.00 | 98 | 1014.6 |
| 20260508064013 | 52 | 180 | 0.0 | 0.0 | 0.00 | 0.00 | 0.00 | 98 | 1014.7 |
| 20260508063510 | 52 | 180 | 0.0 | 0.0 | 0.00 | 0.00 | 0.00 | 98 | 1014.7 |
| 20260508063007 | 52 | 180 | 0.0 | 0.0 | 0.00 | 0.00 | 0.00 | 98 | 1014.5 |
| 20260508062505 | 52 | 180 | 0.0 | 0.0 | 0.00 | 0.00 | 0.00 | 98 | 1014.6 |
| 20260508062001 | 52 | 180 | 0.0 | 0.0 | 0.00 | 0.00 | 0.00 | 97 | 1014.5 |
| 20260508061500 | 52 | 180 | 0.0 | 0.0 | 0.00 | 0.00 | 0.00 | 97 | 1014.6 |
| 20260508060955 | 52 | 180 | 0.0 | 0.0 | 0.00 | 0.00 | 0.00 | 97 | 1014.6 |
| 20260508060453 | 53 | 180 | 0.0 | 0.0 | 0.00 | 0.00 | 0.00 | 97 | 1014.6 |
| 20260508055949 | 53 | 180 | 0.0 | 0.0 | 0.00 | 0.00 | 0.00 | 97 | 1014.7 |
| 20260508055446 | 53 | 180 | 0.0 | 0.0 | 0.00 | 0.00 | 0.00 | 97 | 1014.5 |
| 20260508054942 | 53 | 180 | 0.0 | 0.0 | 0.00 | 0.00 | 0.00 | 97 | 1014.6 |
| 20260508054439 | 53 | 180 | 0.0 | 0.0 | 0.00 | 0.00 | 0.00 | 97 | 1014.9 |
| 20260508053936 | 53 | 180 | 0.0 | 0.0 | 0.00 | 0.00 | 0.00 | 97 | 1014.9 |
| 20260508053433 | 53 | 180 | 0.0 | 0.0 | 0.00 | 0.00 | 0.00 | 96 | 1014.8 |
| 20260508052931 | 53 | 180 | 0.0 | 0.0 | 0.00 | 0.00 | 0.00 | 96 | 1014.8 |
| 20260508052428 | 54 | 180 | 0.0 | 0.0 | 0.00 | 0.00 | 0.00 | 96 | 1014.7 |
| 20260508051924 | 54 | 180 | 0.0 | 0.0 | 0.00 | 0.00 | 0.00 | 96 | 1014.7 |
| 20260508051420 | 54 | 180 | 0.0 | 0.0 | 0.00 | 0.00 | 0.00 | 95 | 1014.8 |
| 20260508050916 | 54 | 180 | 0.0 | 0.0 | 0.00 | 0.00 | 0.00 | 95 | 1015.0 |
| 20260508050413 | 54 | 180 | 0.0 | 0.0 | 0.00 | 0.00 | 0.00 | 94 | 1014.7 |
| 20260508045909 | 55 | 180 | 0.0 | 0.0 | 0.00 | 0.00 | 0.00 | 94 | 1014.6 |
| 20260508045407 | 55 | 180 | 0.0 | 0.0 | 0.00 | 0.00 | 0.00 | 94 | 1014.7 |
| 20260508044905 | 55 | 180 | 0.0 | 0.0 | 0.00 | 0.00 | 0.00 | 93 | 1014.6 |
| 20260508044401 | 55 | 180 | 0.0 | 0.0 | 0.00 | 0.00 | 0.00 | 93 | 1014.7 |
| 20260508043857 | 54 | 180 | 0.0 | 0.0 | 0.00 | 0.00 | 0.00 | 93 | 1014.5 |
| 20260508043354 | 55 | 180 | 0.0 | 0.0 | 0.00 | 0.00 | 0.00 | 93 | 1014.3 |
| 20260508042850 | 55 | 180 | 0.0 | 0.0 | 0.00 | 0.00 | 0.00 | 92 | 1014.4 |
| 20260508042348 | 55 | 180 | 0.0 | 0.0 | 0.00 | 0.00 | 0.00 | 92 | 1014.2 |
| 20260508041845 | 55 | 180 | 0.0 | 0.0 | 0.00 | 0.00 | 0.00 | 92 | 1014.3 |
| 20260508041341 | 55 | 180 | 0.0 | 0.0 | 0.00 | 0.00 | 0.00 | 91 | 1014.4 |
| 20260508040838 | 56 | 180 | 0.0 | 0.0 | 0.00 | 0.00 | 0.00 | 91 | 1014.3 |
| 20260508040335 | 56 | 181 | 0.0 | 0.0 | 0.00 | 0.00 | 0.00 | 92 | 1014.4 |
| 20260508035832 | 56 | 180 | 0.0 | 0.0 | 0.00 | 2.23 | 2.23 | 92 | 1014.0 |
| 20260508035324 | 56 | 180 | 0.0 | 0.0 | 0.00 | 2.23 | 2.23 | 91 | 1014.1 |
| 20260508034821 | 56 | 180 | 0.0 | 0.0 | 0.00 | 2.23 | 2.23 | 90 | 1014.4 |
| 20260508034318 | 56 | 180 | 0.0 | 0.0 | 0.00 | 2.23 | 2.23 | 90 | 1014.1 |
| 20260508033815 | 57 | 180 | 0.0 | 0.0 | 0.00 | 2.23 | 2.23 | 90 | 1014.1 |
| 20260508033313 | 57 | 180 | 0.0 | 0.0 | 0.00 | 2.23 | 2.23 | 89 | 1014.3 |
| 20260508032810 | 57 | 180 | 0.0 | 0.0 | 0.00 | 2.23 | 2.23 | 88 | 1014.3 |
| 20260508032308 | 57 | 181 | 0.0 | 0.0 | 0.00 | 2.23 | 2.23 | 88 | 1014.2 |
| 20260508031804 | 58 | 181 | 0.0 | 0.0 | 0.00 | 2.23 | 2.23 | 86 | 1014.3 |
| 20260508031301 | 58 | 181 | 0.0 | 0.0 | 0.00 | 2.23 | 2.23 | 85 | 1014.3 |
| 20260508030757 | 59 | 181 | 0.0 | 0.0 | 0.00 | 2.23 | 2.23 | 84 | 1014.2 |
| 20260508030255 | 59 | 181 | 0.0 | 0.0 | 0.00 | 2.23 | 2.23 | 82 | 1013.8 |
| 20260508025751 | 60 | 181 | 0.0 | 0.0 | 0.00 | 2.23 | 2.23 | 81 | 1014.0 |
| 20260508025248 | 60 | 181 | 0.0 | 0.0 | 0.00 | 2.23 | 2.23 | 79 | 1013.6 |
| 20260508024744 | 60 | 181 | 0.0 | 1.0 | 0.00 | 2.23 | 2.23 | 78 | 1014.0 |
| 20260508024241 | 60 | 153 | 0.0 | 0.0 | 0.00 | 2.23 | 2.23 | 79 | 1014.1 |
| 20260508023738 | 61 | 152 | 0.0 | 0.0 | 0.00 | 2.23 | 2.23 | 77 | 1013.8 |
| 20260508023236 | 61 | 151 | 0.0 | 1.0 | 0.00 | 2.23 | 2.23 | 76 | 1013.6 |
| 20260508022731 | 62 | 192 | 0.0 | 3.0 | 0.00 | 2.23 | 2.23 | 74 | 1013.4 |
| 20260508022228 | 62 | 175 | 0.0 | 3.0 | 0.00 | 2.23 | 2.23 | 75 | 1013.5 |
| 20260508021725 | 62 | 192 | 1.0 | 3.0 | 0.00 | 2.23 | 2.23 | 74 | 1013.3 |
| 20260508021220 | 62 | 213 | 2.0 | 5.0 | 0.00 | 2.23 | 2.23 | 73 | 1013.2 |
| 20260508020718 | 63 | 202 | 3.0 | 3.0 | 0.00 | 2.23 | 2.23 | 73 | 1013.3 |
| 20260508020215 | 63 | 189 | 2.0 | 2.0 | 0.00 | 2.23 | 2.23 | 72 | 1013.2 |
| 20260508015712 | 63 | 185 | 1.0 | 2.0 | 0.00 | 2.23 | 2.23 | 72 | 1013.2 |
| 20260508015209 | 63 | 238 | 3.0 | 6.0 | 0.00 | 2.23 | 2.23 | 71 | 1013.2 |
| 20260508014706 | 63 | 313 | 5.0 | 8.0 | 0.00 | 2.23 | 2.23 | 71 | 1013.1 |
| 20260508014202 | 64 | 259 | 5.0 | 6.0 | 0.00 | 2.23 | 2.23 | 71 | 1012.8 |
| 20260508013658 | 64 | 136 | 3.0 | 7.0 | 0.00 | 2.23 | 2.23 | 70 | 1012.5 |
| 20260508013155 | 64 | 327 | 3.0 | 8.0 | 0.00 | 2.23 | 2.23 | 70 | 1012.6 |
| 20260508012653 | 64 | 278 | 5.0 | 7.0 | 0.00 | 2.23 | 2.23 | 69 | 1012.5 |
| 20260508012149 | 64 | 268 | 2.0 | 5.0 | 0.00 | 2.23 | 2.23 | 70 | 1012.5 |
| 20260508011648 | 65 | 183 | 4.0 | 7.0 | 0.00 | 2.23 | 2.23 | 69 | 1012.4 |
| 20260508011145 | 65 | 166 | 1.0 | 6.0 | 0.00 | 2.23 | 2.23 | 69 | 1012.4 |
| 20260508010641 | 65 | 225 | 2.0 | 5.0 | 0.00 | 2.23 | 2.23 | 69 | 1012.3 |
| 20260508010139 | 65 | 219 | 5.0 | 6.0 | 0.00 | 2.23 | 2.23 | 68 | 1012.3 |
| 20260508005636 | 66 | 227 | 4.0 | 8.0 | 0.00 | 2.23 | 2.23 | 67 | 1012.3 |
| 20260508005133 | 66 | 198 | 3.0 | 8.0 | 0.00 | 2.23 | 2.23 | 67 | 1012.1 |
| 20260508004628 | 66 | 217 | 2.0 | 5.0 | 0.00 | 2.23 | 2.23 | 66 | 1012.1 |
| 20260508004125 | 67 | 222 | 3.0 | 6.0 | 0.00 | 2.23 | 2.23 | 65 | 1011.8 |
| 20260508003621 | 67 | 189 | 4.0 | 6.0 | 0.00 | 2.23 | 2.23 | 65 | 1011.7 |
| 20260508003119 | 67 | 224 | 2.0 | 5.0 | 0.00 | 2.23 | 2.23 | 65 | 1011.7 |
| 20260508002616 | 68 | 212 | 3.0 | 10.0 | 0.00 | 2.23 | 2.23 | 64 | 1011.5 |
| 20260508002114 | 68 | 250 | 8.0 | 10.0 | 0.00 | 2.23 | 2.23 | 64 | 1011.2 |
| 20260508001608 | 68 | 215 | 5.0 | 7.0 | 0.00 | 2.23 | 2.23 | 65 | 1011.2 |
| 20260508001105 | 69 | 195 | 3.0 | 7.0 | 0.00 | 2.23 | 2.23 | 66 | 1011.3 |
| 20260508000601 | 69 | 285 | 8.0 | 11.0 | 0.00 | 2.23 | 2.23 | 64 | 1010.9 |
| 20260508000058 | 69 | 327 | 6.0 | 9.0 | 0.00 | 2.23 | 2.23 | 65 | 1010.9 |
| 20260507235555 | 70 | 318 | 4.0 | 9.0 | 0.00 | 2.23 | 2.23 | 64 | 1010.8 |
| 20260507235052 | 70 | 210 | 7.0 | 9.0 | 0.00 | 2.23 | 2.23 | 63 | 1010.9 |
| 20260507234548 | 70 | 273 | 5.0 | 9.0 | 0.00 | 2.23 | 2.23 | 62 | 1010.7 |
| 20260507234045 | 71 | 240 | 4.0 | 7.0 | 0.00 | 2.23 | 2.23 | 61 | 1010.6 |
| 20260507233542 | 71 | 208 | 5.0 | 10.0 | 0.00 | 2.23 | 2.23 | 61 | 1010.6 |
| 20260507233041 | 71 | 183 | 6.0 | 8.0 | 0.00 | 2.23 | 2.23 | 60 | 1010.5 |
| 20260507232536 | 71 | 232 | 3.0 | 8.0 | 0.00 | 2.23 | 2.23 | 60 | 1010.4 |
| 20260507232034 | 71 | 260 | 9.0 | 14.0 | 0.00 | 2.23 | 2.23 | 59 | 1010.2 |
| 20260507231530 | 72 | 219 | 6.0 | 10.0 | 0.00 | 2.23 | 2.23 | 61 | 1010.1 |
| 20260507231028 | 72 | 221 | 4.0 | 11.0 | 0.00 | 2.23 | 2.23 | 61 | 1010.4 |
| 20260507230524 | 72 | 246 | 3.0 | 9.0 | 0.00 | 2.23 | 2.23 | 63 | 1010.4 |
| 20260507230021 | 72 | 254 | 6.0 | 11.0 | 0.00 | 2.23 | 2.23 | 63 | 1010.1 |